QF83 YSSY-YMML
Flight info
| Callsign | QF83 |
|---|---|
| Flight time | 1h 15m |
| Altitude | 34000 |
| Route | DCT KEVIN DCT WOL H65 LEECE Q29 ML DCT |
| Aircraft | B38M/M-SDE1FGHILORVWXY/HB1 |
Departure
| Time | 2026-05-07 11:37 |
|---|---|
| Airport | Sydney Kingsford Smith International Airport (YSSY) |
Arrival
| Time | 2026-05-07 12:52 |
|---|---|
| Airport | Melbourne Airport (YMML) |
| Time | Latitude | Longitude | Altitude | Speed | Heading |
|---|---|---|---|---|---|
| 2026-05-07 11:02 | -33.93122 | 151.17713 | 31 ft | 0 kts | 188° |
| 2026-05-07 11:21 | -33.93121 | 151.17713 | 31 ft | 2 kts | 188° |
| 2026-05-07 11:21 | -33.93103 | 151.17716 | 38 ft | 3 kts | 188° |
| 2026-05-07 11:21 | -33.93084 | 151.17719 | 31 ft | 3 kts | 188° |
| 2026-05-07 11:22 | -33.93066 | 151.17722 | 31 ft | 3 kts | 188° |
| 2026-05-07 11:22 | -33.93050 | 151.17733 | 31 ft | 3 kts | 253° |
| 2026-05-07 11:22 | -33.93048 | 151.17745 | 29 ft | 0 kts | 280° |
| 2026-05-07 11:29 | -33.93048 | 151.17742 | 31 ft | 0 kts | 281° |
| 2026-05-07 11:30 | -33.93046 | 151.17734 | 30 ft | 3 kts | 287° |
| 2026-05-07 11:30 | -33.93030 | 151.17698 | 31 ft | 7 kts | 298° |
| 2026-05-07 11:30 | -33.93010 | 151.17630 | 31 ft | 10 kts | 283° |
| 2026-05-07 11:30 | -33.93026 | 151.17549 | 31 ft | 11 kts | 217° |
| 2026-05-07 11:31 | -33.93115 | 151.17532 | 30 ft | 16 kts | 180° |
| 2026-05-07 11:31 | -33.93241 | 151.17556 | 31 ft | 21 kts | 167° |
| 2026-05-07 11:31 | -33.93397 | 151.17591 | 31 ft | 24 kts | 179° |
| 2026-05-07 11:31 | -33.93580 | 151.17609 | 27 ft | 28 kts | 168° |
| 2026-05-07 11:32 | -33.93794 | 151.17699 | 22 ft | 18 kts | 169° |
| 2026-05-07 11:32 | -33.93841 | 151.17779 | 22 ft | 10 kts | 77° |
| 2026-05-07 11:32 | -33.93822 | 151.17860 | 28 ft | 10 kts | 74° |
| 2026-05-07 11:33 | -33.93802 | 151.17945 | 29 ft | 11 kts | 73° |
| 2026-05-07 11:33 | -33.93777 | 151.18047 | 32 ft | 15 kts | 74° |
| 2026-05-07 11:33 | -33.93744 | 151.18195 | 32 ft | 22 kts | 74° |
| 2026-05-07 11:33 | -33.93696 | 151.18394 | 32 ft | 28 kts | 75° |
| 2026-05-07 11:34 | -33.93643 | 151.18624 | 32 ft | 23 kts | 75° |
| 2026-05-07 11:34 | -33.93607 | 151.18777 | 32 ft | 16 kts | 75° |
| 2026-05-07 11:34 | -33.93603 | 151.18902 | 30 ft | 11 kts | 114° |
| 2026-05-07 11:34 | -33.93646 | 151.18943 | 30 ft | 2 kts | 161° |
| 2026-05-07 11:35 | -33.93647 | 151.18944 | 30 ft | 2 kts | 161° |
| 2026-05-07 11:35 | -33.93692 | 151.18959 | 28 ft | 10 kts | 166° |
| 2026-05-07 11:35 | -33.93761 | 151.18938 | 27 ft | 7 kts | 227° |
| 2026-05-07 11:35 | -33.93781 | 151.18873 | 27 ft | 9 kts | 253° |
| 2026-05-07 11:36 | -33.93783 | 151.18866 | 27 ft | 0 kts | 253° |
| 2026-05-07 11:36 | -33.93783 | 151.18865 | 27 ft | 0 kts | 253° |
| 2026-05-07 11:36 | -33.93785 | 151.18856 | 27 ft | 11 kts | 253° |
| 2026-05-07 11:37 | -33.93884 | 151.18431 | 32 ft | 94 kts | 253° |
| 2026-05-07 11:37 | -33.94115 | 151.17447 | 269 ft | 141 kts | 255° |
| 2026-05-07 11:37 | -33.94280 | 151.16214 | 753 ft | 154 kts | 284° |
| 2026-05-07 11:37 | -33.93665 | 151.15196 | 1492 ft | 155 kts | 300° |
| 2026-05-07 11:38 | -33.92897 | 151.14209 | 1697 ft | 167 kts | 303° |
| 2026-05-07 11:38 | -33.92091 | 151.13173 | 1749 ft | 176 kts | 303° |
| 2026-05-07 11:38 | -33.91242 | 151.12061 | 1711 ft | 184 kts | 302° |
| 2026-05-07 11:38 | -33.90378 | 151.10920 | 1756 ft | 178 kts | 302° |
| 2026-05-07 11:39 | -33.89678 | 151.09751 | 1754 ft | 169 kts | 282° |
| 2026-05-07 11:39 | -33.89692 | 151.08414 | 1747 ft | 162 kts | 241° |
| 2026-05-07 11:39 | -33.90513 | 151.07487 | 1755 ft | 166 kts | 217° |
| 2026-05-07 11:39 | -33.91601 | 151.06939 | 1756 ft | 173 kts | 203° |
| 2026-05-07 11:40 | -33.92737 | 151.06519 | 2001 ft | 162 kts | 204° |
| 2026-05-07 11:40 | -33.93743 | 151.06108 | 2431 ft | 146 kts | 205° |
| 2026-05-07 11:40 | -33.94702 | 151.05692 | 2822 ft | 154 kts | 204° |
| 2026-05-07 11:40 | -33.95773 | 151.05223 | 3211 ft | 169 kts | 203° |
| 2026-05-07 11:41 | -33.96884 | 151.04745 | 3631 ft | 173 kts | 202° |
| 2026-05-07 11:41 | -33.98020 | 151.04255 | 4031 ft | 174 kts | 201° |
| 2026-05-07 11:41 | -33.99170 | 151.03756 | 4467 ft | 175 kts | 202° |
| 2026-05-07 11:41 | -34.00306 | 151.03266 | 4899 ft | 175 kts | 201° |
| 2026-05-07 11:42 | -34.01488 | 151.02755 | 5423 ft | 189 kts | 201° |
| 2026-05-07 11:42 | -34.02780 | 151.02196 | 5939 ft | 206 kts | 200° |
| 2026-05-07 11:42 | -34.04192 | 151.01584 | 6404 ft | 225 kts | 200° |
| 2026-05-07 11:42 | -34.05726 | 151.00921 | 6898 ft | 241 kts | 200° |
| 2026-05-07 11:43 | -34.07332 | 151.00226 | 7562 ft | 248 kts | 201° |
| 2026-05-07 11:43 | -34.08974 | 150.99514 | 8320 ft | 254 kts | 201° |
| 2026-05-07 11:43 | -34.10648 | 150.98788 | 9083 ft | 258 kts | 201° |
| 2026-05-07 11:43 | -34.12351 | 150.98049 | 9858 ft | 263 kts | 202° |
| 2026-05-07 11:44 | -34.14090 | 150.97294 | 10530 ft | 269 kts | 201° |
| 2026-05-07 11:44 | -34.15891 | 150.96512 | 11049 ft | 281 kts | 201° |
| 2026-05-07 11:44 | -34.17771 | 150.95696 | 11505 ft | 294 kts | 200° |
| 2026-05-07 11:44 | -34.19747 | 150.94838 | 11894 ft | 309 kts | 200° |
| 2026-05-07 11:45 | -34.21815 | 150.93939 | 12259 ft | 323 kts | 200° |
| 2026-05-07 11:45 | -34.23934 | 150.93018 | 12829 ft | 331 kts | 200° |
| 2026-05-07 11:45 | -34.26113 | 150.92069 | 13558 ft | 334 kts | 199° |
| 2026-05-07 11:45 | -34.28310 | 150.91112 | 14312 ft | 336 kts | 199° |
| 2026-05-07 11:46 | -34.30519 | 150.90150 | 14997 ft | 339 kts | 199° |
| 2026-05-07 11:46 | -34.32743 | 150.89182 | 15712 ft | 341 kts | 200° |
| 2026-05-07 11:46 | -34.34983 | 150.88208 | 16409 ft | 343 kts | 200° |
| 2026-05-07 11:46 | -34.37238 | 150.87222 | 17096 ft | 344 kts | 200° |
| 2026-05-07 11:47 | -34.39500 | 150.86231 | 17790 ft | 347 kts | 200° |
| 2026-05-07 11:47 | -34.41776 | 150.85237 | 18466 ft | 349 kts | 200° |
| 2026-05-07 11:47 | -34.44067 | 150.84235 | 19028 ft | 351 kts | 201° |
| 2026-05-07 11:47 | -34.46376 | 150.83225 | 19582 ft | 354 kts | 201° |
| 2026-05-07 11:48 | -34.48698 | 150.82208 | 20135 ft | 357 kts | 201° |
| 2026-05-07 11:48 | -34.51020 | 150.81118 | 20644 ft | 359 kts | 205° |
| 2026-05-07 11:48 | -34.53218 | 150.79733 | 21144 ft | 362 kts | 211° |
| 2026-05-07 11:48 | -34.55316 | 150.78021 | 21645 ft | 365 kts | 217° |
| 2026-05-07 11:49 | -34.57253 | 150.76009 | 22140 ft | 368 kts | 223° |
| 2026-05-07 11:49 | -34.59008 | 150.73710 | 22590 ft | 372 kts | 229° |
| 2026-05-07 11:49 | -34.60570 | 150.71178 | 23071 ft | 376 kts | 232° |
| 2026-05-07 11:49 | -34.62119 | 150.68610 | 23538 ft | 378 kts | 232° |
| 2026-05-07 11:50 | -34.63684 | 150.66028 | 23956 ft | 381 kts | 232° |
| 2026-05-07 11:50 | -34.65256 | 150.63419 | 24377 ft | 384 kts | 232° |
| 2026-05-07 11:50 | -34.66816 | 150.60818 | 24788 ft | 386 kts | 232° |
| 2026-05-07 11:50 | -34.68423 | 150.58142 | 25209 ft | 388 kts | 232° |
| 2026-05-07 11:51 | -34.70013 | 150.55498 | 25762 ft | 386 kts | 232° |
| 2026-05-07 11:51 | -34.71572 | 150.52900 | 26349 ft | 383 kts | 232° |
| 2026-05-07 11:51 | -34.73137 | 150.50291 | 26942 ft | 381 kts | 232° |
| 2026-05-07 11:51 | -34.74693 | 150.47696 | 27527 ft | 378 kts | 232° |
| 2026-05-07 11:52 | -34.76237 | 150.45117 | 28009 ft | 376 kts | 232° |
| 2026-05-07 11:52 | -34.77773 | 150.42550 | 28549 ft | 374 kts | 232° |
| 2026-05-07 11:52 | -34.79304 | 150.39991 | 29083 ft | 373 kts | 232° |
| 2026-05-07 11:52 | -34.80826 | 150.37444 | 29594 ft | 372 kts | 232° |
| 2026-05-07 11:53 | -34.82345 | 150.34902 | 30134 ft | 370 kts | 232° |
| 2026-05-07 11:53 | -34.83853 | 150.32373 | 30578 ft | 368 kts | 232° |
| 2026-05-07 11:53 | -34.85355 | 150.29855 | 30984 ft | 367 kts | 232° |
| 2026-05-07 11:53 | -34.86853 | 150.27342 | 31335 ft | 367 kts | 232° |
| 2026-05-07 11:54 | -34.88349 | 150.24830 | 31670 ft | 366 kts | 232° |
| 2026-05-07 11:54 | -34.89848 | 150.22313 | 32046 ft | 366 kts | 232° |
| 2026-05-07 11:54 | -34.91321 | 150.19834 | 32380 ft | 366 kts | 232° |
| 2026-05-07 11:54 | -34.92815 | 150.17320 | 32701 ft | 367 kts | 232° |
| 2026-05-07 11:55 | -34.94312 | 150.14803 | 32986 ft | 367 kts | 232° |
| 2026-05-07 11:55 | -34.95811 | 150.12274 | 33276 ft | 369 kts | 232° |
| 2026-05-07 11:55 | -34.97316 | 150.09734 | 33606 ft | 369 kts | 232° |
| 2026-05-07 11:55 | -34.98821 | 150.07195 | 33882 ft | 371 kts | 232° |
| 2026-05-07 11:56 | -35.00341 | 150.04631 | 34066 ft | 375 kts | 232° |
| 2026-05-07 11:56 | -35.03450 | 149.99371 | 34059 ft | 385 kts | 232° |
| 2026-05-07 11:57 | -35.06593 | 149.94050 | 34071 ft | 386 kts | 232° |
| 2026-05-07 11:57 | -35.09737 | 149.88718 | 34069 ft | 387 kts | 232° |
| 2026-05-07 11:58 | -35.12365 | 149.84256 | 34079 ft | 392 kts | 232° |
| 2026-05-07 11:58 | -35.15527 | 149.78875 | 34066 ft | 389 kts | 232° |
| 2026-05-07 11:59 | -35.18682 | 149.73504 | 34056 ft | 389 kts | 232° |
| 2026-05-07 11:59 | -35.21828 | 149.68135 | 34068 ft | 389 kts | 233° |
| 2026-05-07 12:00 | -35.24957 | 149.62789 | 34060 ft | 388 kts | 233° |
| 2026-05-07 12:00 | -35.28095 | 149.57421 | 34077 ft | 385 kts | 233° |
| 2026-05-07 12:01 | -35.31194 | 149.52109 | 34077 ft | 383 kts | 233° |
| 2026-05-07 12:01 | -35.34289 | 149.46797 | 34077 ft | 383 kts | 233° |
| 2026-05-07 12:02 | -35.37385 | 149.41475 | 34070 ft | 383 kts | 233° |
| 2026-05-07 12:02 | -35.40476 | 149.36153 | 34070 ft | 383 kts | 233° |
| 2026-05-07 12:03 | -35.43557 | 149.30842 | 34062 ft | 380 kts | 233° |
| 2026-05-07 12:03 | -35.46620 | 149.25552 | 34140 ft | 378 kts | 233° |
| 2026-05-07 12:04 | -35.49664 | 149.20287 | 34147 ft | 380 kts | 233° |
| 2026-05-07 12:04 | -35.52730 | 149.14978 | 34152 ft | 380 kts | 233° |
| 2026-05-07 12:05 | -35.55796 | 149.09658 | 34148 ft | 381 kts | 233° |
| 2026-05-07 12:05 | -35.58837 | 149.04375 | 34158 ft | 380 kts | 234° |
| 2026-05-07 12:06 | -35.61916 | 148.99018 | 34158 ft | 384 kts | 234° |
| 2026-05-07 12:06 | -35.64996 | 148.93649 | 34162 ft | 384 kts | 234° |
| 2026-05-07 12:07 | -35.68073 | 148.88279 | 34163 ft | 384 kts | 234° |
| 2026-05-07 12:07 | -35.71150 | 148.82901 | 34173 ft | 384 kts | 234° |
| 2026-05-07 12:08 | -35.74222 | 148.77522 | 34181 ft | 384 kts | 234° |
| 2026-05-07 12:08 | -35.77283 | 148.72155 | 34164 ft | 388 kts | 234° |
| 2026-05-07 12:09 | -35.80377 | 148.66721 | 34171 ft | 387 kts | 234° |
| 2026-05-07 12:09 | -35.83462 | 148.61294 | 34169 ft | 386 kts | 234° |
| 2026-05-07 12:10 | -35.86547 | 148.55859 | 34184 ft | 385 kts | 234° |
| 2026-05-07 12:10 | -35.89621 | 148.50429 | 34177 ft | 385 kts | 234° |
| 2026-05-07 12:11 | -35.92662 | 148.45029 | 34184 ft | 387 kts | 235° |
| 2026-05-07 12:11 | -35.95736 | 148.39567 | 34188 ft | 392 kts | 235° |
| 2026-05-07 12:12 | -35.98864 | 148.33999 | 34204 ft | 391 kts | 235° |
| 2026-05-07 12:12 | -36.01930 | 148.28533 | 34194 ft | 384 kts | 235° |
| 2026-05-07 12:13 | -36.04973 | 148.23101 | 34210 ft | 384 kts | 235° |
| 2026-05-07 12:13 | -36.08007 | 148.17674 | 34199 ft | 383 kts | 235° |
| 2026-05-07 12:14 | -36.11033 | 148.12256 | 34195 ft | 383 kts | 235° |
| 2026-05-07 12:14 | -36.14059 | 148.06839 | 34194 ft | 382 kts | 235° |
| 2026-05-07 12:15 | -36.17073 | 148.01455 | 34200 ft | 383 kts | 235° |
| 2026-05-07 12:15 | -36.20096 | 147.96034 | 34201 ft | 382 kts | 235° |
| 2026-05-07 12:16 | -36.23118 | 147.90613 | 34202 ft | 382 kts | 235° |
| 2026-05-07 12:16 | -36.26133 | 147.85192 | 34196 ft | 381 kts | 235° |
| 2026-05-07 12:17 | -36.29132 | 147.79795 | 34214 ft | 379 kts | 236° |
| 2026-05-07 12:17 | -36.32117 | 147.74412 | 34209 ft | 378 kts | 236° |
| 2026-05-07 12:18 | -36.35098 | 147.69023 | 34210 ft | 379 kts | 236° |
| 2026-05-07 12:18 | -36.38054 | 147.63658 | 34195 ft | 379 kts | 236° |
| 2026-05-07 12:19 | -36.41038 | 147.58242 | 34208 ft | 380 kts | 236° |
| 2026-05-07 12:19 | -36.44004 | 147.52846 | 34203 ft | 377 kts | 236° |
| 2026-05-07 12:20 | -36.46956 | 147.47469 | 34201 ft | 377 kts | 236° |
| 2026-05-07 12:20 | -36.49910 | 147.42079 | 34201 ft | 377 kts | 236° |
| 2026-05-07 12:21 | -36.52836 | 147.36730 | 34202 ft | 377 kts | 236° |
| 2026-05-07 12:21 | -36.55779 | 147.31345 | 34204 ft | 375 kts | 236° |
| 2026-05-07 12:22 | -36.58713 | 147.25964 | 34206 ft | 376 kts | 236° |
| 2026-05-07 12:22 | -36.61647 | 147.20579 | 34206 ft | 376 kts | 236° |
| 2026-05-07 12:23 | -36.64577 | 147.15188 | 34203 ft | 376 kts | 236° |
| 2026-05-07 12:23 | -36.67505 | 147.09796 | 34198 ft | 376 kts | 237° |
| 2026-05-07 12:24 | -36.70430 | 147.04399 | 34208 ft | 375 kts | 237° |
| 2026-05-07 12:24 | -36.73351 | 146.99002 | 34206 ft | 375 kts | 237° |
| 2026-05-07 12:25 | -36.76250 | 146.93637 | 34216 ft | 375 kts | 237° |
| 2026-05-07 12:25 | -36.79169 | 146.88224 | 34215 ft | 375 kts | 237° |
| 2026-05-07 12:26 | -36.82072 | 146.82835 | 34202 ft | 371 kts | 237° |
| 2026-05-07 12:26 | -36.84961 | 146.77460 | 34206 ft | 373 kts | 237° |
| 2026-05-07 12:27 | -36.87833 | 146.72110 | 34206 ft | 373 kts | 237° |
| 2026-05-07 12:27 | -36.90722 | 146.66719 | 34203 ft | 373 kts | 237° |
| 2026-05-07 12:28 | -36.93614 | 146.61315 | 34212 ft | 373 kts | 237° |
| 2026-05-07 12:28 | -36.96491 | 146.55931 | 34219 ft | 372 kts | 237° |
| 2026-05-07 12:29 | -36.99370 | 146.50532 | 34216 ft | 373 kts | 237° |
| 2026-05-07 12:29 | -37.02244 | 146.45136 | 34209 ft | 372 kts | 237° |
| 2026-05-07 12:30 | -37.05095 | 146.39773 | 34217 ft | 372 kts | 237° |
| 2026-05-07 12:30 | -37.07950 | 146.34396 | 34211 ft | 369 kts | 238° |
| 2026-05-07 12:31 | -37.10801 | 146.29015 | 34207 ft | 371 kts | 238° |
| 2026-05-07 12:31 | -37.12228 | 146.26319 | 33884 ft | 370 kts | 238° |
| 2026-05-07 12:31 | -37.13642 | 146.23647 | 33631 ft | 367 kts | 238° |
| 2026-05-07 12:31 | -37.15050 | 146.20984 | 33302 ft | 365 kts | 238° |
| 2026-05-07 12:32 | -37.16449 | 146.18333 | 32759 ft | 363 kts | 238° |
| 2026-05-07 12:32 | -37.17835 | 146.15707 | 32215 ft | 358 kts | 238° |
| 2026-05-07 12:32 | -37.19199 | 146.13123 | 31666 ft | 354 kts | 238° |
| 2026-05-07 12:32 | -37.20532 | 146.10591 | 31123 ft | 351 kts | 238° |
| 2026-05-07 12:33 | -37.23219 | 146.05481 | 29939 ft | 353 kts | 238° |
| 2026-05-07 12:33 | -37.24573 | 146.02903 | 29344 ft | 358 kts | 237° |
| 2026-05-07 12:33 | -37.25957 | 146.00269 | 28710 ft | 362 kts | 237° |
| 2026-05-07 12:34 | -37.27348 | 145.97623 | 28063 ft | 365 kts | 237° |
| 2026-05-07 12:34 | -37.28751 | 145.94947 | 27407 ft | 367 kts | 236° |
| 2026-05-07 12:34 | -37.30156 | 145.92263 | 26711 ft | 370 kts | 236° |
| 2026-05-07 12:34 | -37.31578 | 145.89549 | 25995 ft | 372 kts | 235° |
| 2026-05-07 12:35 | -37.33011 | 145.86825 | 25261 ft | 374 kts | 235° |
| 2026-05-07 12:35 | -37.34452 | 145.84086 | 24501 ft | 377 kts | 234° |
| 2026-05-07 12:35 | -37.35901 | 145.81324 | 23670 ft | 380 kts | 234° |
| 2026-05-07 12:35 | -37.37339 | 145.78578 | 22843 ft | 382 kts | 234° |
| 2026-05-07 12:36 | -37.38791 | 145.75801 | 22019 ft | 379 kts | 234° |
| 2026-05-07 12:36 | -37.40231 | 145.73049 | 21209 ft | 374 kts | 234° |
| 2026-05-07 12:36 | -37.41653 | 145.70330 | 20385 ft | 370 kts | 233° |
| 2026-05-07 12:36 | -37.43057 | 145.67642 | 19601 ft | 366 kts | 233° |
| 2026-05-07 12:37 | -37.44352 | 145.64900 | 18800 ft | 367 kts | 243° |
| 2026-05-07 12:37 | -37.44978 | 145.61761 | 17957 ft | 373 kts | 256° |
| 2026-05-07 12:37 | -37.45064 | 145.58475 | 17168 ft | 375 kts | 265° |
| 2026-05-07 12:37 | -37.44972 | 145.55203 | 16336 ft | 371 kts | 265° |
| 2026-05-07 12:38 | -37.44910 | 145.51974 | 15528 ft | 366 kts | 264° |
| 2026-05-07 12:38 | -37.44897 | 145.48784 | 14756 ft | 363 kts | 264° |
| 2026-05-07 12:38 | -37.44878 | 145.45621 | 13969 ft | 360 kts | 264° |
| 2026-05-07 12:38 | -37.44835 | 145.42481 | 13167 ft | 356 kts | 265° |
| 2026-05-07 12:39 | -37.44789 | 145.39432 | 12651 ft | 351 kts | 264° |
| 2026-05-07 12:39 | -37.44755 | 145.36359 | 12211 ft | 351 kts | 264° |
| 2026-05-07 12:39 | -37.44721 | 145.33311 | 11748 ft | 344 kts | 264° |
| 2026-05-07 12:39 | -37.44680 | 145.30343 | 11295 ft | 333 kts | 264° |
| 2026-05-07 12:40 | -37.44641 | 145.27470 | 10865 ft | 323 kts | 264° |
| 2026-05-07 12:40 | -37.44605 | 145.24677 | 10438 ft | 314 kts | 264° |
| 2026-05-07 12:40 | -37.44571 | 145.21958 | 10020 ft | 307 kts | 264° |
| 2026-05-07 12:40 | -37.44535 | 145.19312 | 9607 ft | 299 kts | 264° |
| 2026-05-07 12:41 | -37.44499 | 145.16719 | 9203 ft | 289 kts | 264° |
| 2026-05-07 12:41 | -37.44454 | 145.14359 | 8849 ft | 252 kts | 264° |
| 2026-05-07 12:41 | -37.44426 | 145.12239 | 8568 ft | 244 kts | 263° |
| 2026-05-07 12:41 | -37.44407 | 145.10106 | 8283 ft | 243 kts | 263° |
| 2026-05-07 12:42 | -37.44378 | 145.07987 | 7993 ft | 242 kts | 263° |
| 2026-05-07 12:42 | -37.44344 | 145.05873 | 7698 ft | 240 kts | 264° |
| 2026-05-07 12:42 | -37.44312 | 145.03777 | 7415 ft | 239 kts | 264° |
| 2026-05-07 12:42 | -37.44280 | 145.01686 | 7126 ft | 238 kts | 264° |
| 2026-05-07 12:43 | -37.44247 | 144.99608 | 6835 ft | 237 kts | 263° |
| 2026-05-07 12:43 | -37.44216 | 144.97543 | 6538 ft | 235 kts | 263° |
| 2026-05-07 12:43 | -37.44185 | 144.95487 | 6246 ft | 234 kts | 263° |
| 2026-05-07 12:43 | -37.44267 | 144.93554 | 5956 ft | 207 kts | 251° |
| 2026-05-07 12:44 | -37.44507 | 144.91906 | 5778 ft | 175 kts | 252° |
| 2026-05-07 12:44 | -37.44691 | 144.90539 | 5550 ft | 143 kts | 250° |
| 2026-05-07 12:44 | -37.44884 | 144.89286 | 5394 ft | 148 kts | 251° |
| 2026-05-07 12:44 | -37.45056 | 144.88050 | 5212 ft | 139 kts | 251° |
| 2026-05-07 12:45 | -37.45221 | 144.86880 | 5038 ft | 133 kts | 251° |
| 2026-05-07 12:45 | -37.45383 | 144.85746 | 4882 ft | 132 kts | 251° |
| 2026-05-07 12:45 | -37.45546 | 144.84600 | 4704 ft | 133 kts | 251° |
| 2026-05-07 12:45 | -37.45711 | 144.83439 | 4511 ft | 135 kts | 252° |
| 2026-05-07 12:46 | -37.45974 | 144.82342 | 4340 ft | 128 kts | 239° |
| 2026-05-07 12:46 | -37.46485 | 144.81433 | 4182 ft | 128 kts | 226° |
| 2026-05-07 12:46 | -37.47183 | 144.80763 | 4021 ft | 128 kts | 213° |
| 2026-05-07 12:46 | -37.47981 | 144.80399 | 3877 ft | 119 kts | 200° |
| 2026-05-07 12:47 | -37.48765 | 144.80340 | 3722 ft | 108 kts | 191° |
| 2026-05-07 12:47 | -37.49526 | 144.80481 | 3600 ft | 113 kts | 185° |
| 2026-05-07 12:47 | -37.50314 | 144.80645 | 3456 ft | 116 kts | 179° |
| 2026-05-07 12:47 | -37.51102 | 144.80803 | 3321 ft | 115 kts | 180° |
| 2026-05-07 12:48 | -37.51898 | 144.80966 | 3170 ft | 118 kts | 184° |
| 2026-05-07 12:48 | -37.52727 | 144.81132 | 3019 ft | 122 kts | 178° |
| 2026-05-07 12:48 | -37.53289 | 144.81257 | 2937 ft | 125 kts | 182° |
| 2026-05-07 12:48 | -37.54155 | 144.81460 | 2771 ft | 128 kts | 182° |
| 2026-05-07 12:49 | -37.55000 | 144.81675 | 2591 ft | 117 kts | 180° |
| 2026-05-07 12:49 | -37.55739 | 144.81832 | 2420 ft | 96 kts | 199° |
| 2026-05-07 12:49 | -37.56406 | 144.81897 | 2335 ft | 104 kts | 185° |
| 2026-05-07 12:49 | -37.57167 | 144.81989 | 2212 ft | 116 kts | 184° |
| 2026-05-07 12:50 | -37.58018 | 144.82126 | 2095 ft | 131 kts | 186° |
| 2026-05-07 12:50 | -37.58945 | 144.82293 | 1889 ft | 136 kts | 182° |
| 2026-05-07 12:50 | -37.59877 | 144.82475 | 1702 ft | 136 kts | 184° |
| 2026-05-07 12:50 | -37.60806 | 144.82644 | 1511 ft | 137 kts | 181° |
| 2026-05-07 12:51 | -37.61723 | 144.82816 | 1304 ft | 128 kts | 179° |
| 2026-05-07 12:51 | -37.62579 | 144.82988 | 1075 ft | 124 kts | 178° |
| 2026-05-07 12:51 | -37.63434 | 144.83142 | 878 ft | 126 kts | 180° |
| 2026-05-07 12:51 | -37.64293 | 144.83327 | 679 ft | 124 kts | 180° |
| 2026-05-07 12:52 | -37.65148 | 144.83467 | 528 ft | 125 kts | 181° |
| 2026-05-07 12:52 | -37.65977 | 144.83613 | 405 ft | 110 kts | 178° |
| 2026-05-07 12:52 | -37.66573 | 144.83698 | 393 ft | 63 kts | 168° |
| 2026-05-07 12:52 | -37.66909 | 144.83792 | 386 ft | 35 kts | 161° |
| 2026-05-07 12:53 | -37.67111 | 144.83935 | 378 ft | 28 kts | 142° |
| 2026-05-07 12:53 | -37.67164 | 144.83986 | 375 ft | 0 kts | 142° |
| 2026-05-07 12:54 | -37.67166 | 144.83988 | 374 ft | 2 kts | 142° |
| 2026-05-07 12:54 | -37.67193 | 144.84019 | 373 ft | 8 kts | 133° |
| 2026-05-07 12:54 | -37.67220 | 144.84108 | 370 ft | 13 kts | 98° |
| 2026-05-07 12:54 | -37.67213 | 144.84243 | 369 ft | 18 kts | 84° |
| 2026-05-07 12:55 | -37.67200 | 144.84409 | 365 ft | 17 kts | 88° |
| 2026-05-07 12:55 | -37.67213 | 144.84520 | 365 ft | 9 kts | 93° |
| 2026-05-07 12:55 | -37.67199 | 144.84546 | 362 ft | 3 kts | 25° |
| 2026-05-07 12:55 | -37.67176 | 144.84548 | 362 ft | 1 kts | 18° |
| 2026-05-07 12:56 | -37.67155 | 144.84562 | 365 ft | 6 kts | 30° |
| 2026-05-07 12:56 | -37.67143 | 144.84571 | 365 ft | 0 kts | 31° |